Date,TemperatureHighF,TemperatureAvgF,TemperatureLowF,DewpointHighF,DewpointAvgF,DewpointLowF,HumidityHigh,HumidityAvg,HumidityLow,PressureMaxIn,PressureMinIn,WindSpeedMaxMPH,WindSpeedAvgMPH,GustSpeedMaxMPH,PrecipitationSumIn
2013-1-1,75.3,70.0,63.0,62.0,59.7,57.0,89,67,55,30.20,30.05,32,6,32,0.00
2013-1-2,79.5,70.2,61.7,67.0,63.4,60.0,97,77,51,30.09,29.99,15,2,15,0.00
2013-1-3,80.0,72.1,65.3,67.0,65.6,63.0,95,78,52,30.13,30.02,15,3,15,0.00
2013-1-4,81.2,71.6,65.8,70.0,66.7,65.0,95,82,55,30.23,30.10,17,4,18,0.00
2013-1-5,82.8,69.3,65.8,72.0,66.8,65.0,95,89,61,30.25,30.15,19,5,21,0.00
2013-1-6,78.7,72.0,65.9,74.0,67.8,65.0,97,84,64,30.19,30.05,26,5,26,0.00
2013-1-7,75.2,71.2,67.9,70.0,67.9,65.0,94,87,74,30.16,30.07,23,6,23,0.00
2013-1-8,78.0,73.2,68.5,73.0,69.5,65.0,94,85,72,30.22,30.08,26,6,26,0.00
2013-1-9,78.5,75.5,72.1,71.0,69.0,67.0,91,78,68,30.28,30.16,56,10,56,0.00
2013-1-10,77.7,74.4,72.4,70.0,65.5,61.0,81,71,55,30.30,30.18,34,9,34,0.00
2013-1-11,77.2,73.7,72.0,70.0,66.9,65.0,86,77,66,30.26,30.15,24,6,24,0.00
2013-1-12,80.1,74.8,71.5,70.0,65.3,63.0,80,69,55,30.18,30.09,24,7,24,0.00
2013-1-13,77.8,74.8,71.8,67.0,63.9,60.0,73,65,59,30.13,30.09,28,9,28,0.00
2013-1-14,80.1,73.9,69.2,66.0,64.1,61.0,85,69,56,30.17,30.12,25,5,25,0.00
2013-1-15,77.2,72.8,68.4,71.0,64.7,63.0,87,73,60,30.14,30.05,22,5,22,0.00
2013-1-16,81.0,72.9,65.5,72.0,66.0,63.0,92,76,60,30.11,30.01,44,4,44,0.00
2013-1-17,77.8,70.9,61.1,71.0,64.1,52.0,94,77,62,30.09,29.96,34,8,35,0.00
2013-1-18,72.8,62.4,51.9,58.0,52.1,45.0,80,67,51,30.23,30.09,25,9,25,0.00
2013-1-19,70.8,67.8,66.2,67.0,63.3,57.0,95,83,67,30.22,30.10,12,2,12,0.00
2013-1-20,78.2,70.5,64.2,72.0,65.8,64.0,99,83,62,30.14,30.01,19,3,21,0.00
2013-1-21,78.5,71.5,65.8,71.0,66.2,63.0,95,81,62,30.07,29.96,16,3,16,0.00
2013-1-22,72.8,66.9,62.1,64.0,57.9,51.0,92,71,55,30.22,30.00,31,12,32,0.00
2013-1-23,72.8,65.4,60.0,59.0,54.8,52.0,78,66,46,30.30,30.20,24,8,26,0.00
2013-1-24,73.5,65.4,59.4,54.0,51.9,43.0,78,58,30,30.29,30.19,24,7,24,0.00
2013-1-25,79.6,66.5,57.9,61.0,54.9,50.0,80,64,43,30.29,30.18,21,4,21,0.00
2013-1-26,78.3,67.8,59.1,61.0,56.3,50.0,86,64,40,30.26,30.16,16,4,16,0.00
2013-1-27,78.3,69.6,61.9,62.0,58.7,57.0,84,65,44,30.29,30.20,24,5,24,0.00
2013-1-28,78.4,72.9,69.3,67.0,62.8,60.0,81,68,55,30.32,30.22,25,8,25,0.00
2013-1-29,77.5,72.9,70.5,72.0,66.4,64.0,88,78,67,30.23,30.12,25,7,25,0.00
2013-1-30,79.5,73.0,69.2,67.0,64.0,61.0,87,71,56,30.12,29.96,35,10,35,0.00
2013-1-31,70.3,64.8,57.1,70.0,56.9,40.0,96,74,45,30.18,29.94,30,8,30,0.00
2013-2-1,68.8,60.6,51.7,55.0,47.1,37.0,68,58,46,30.27,30.16,34,12,34,0.00
2013-2-2,76.5,63.5,54.9,55.0,48.3,37.0,81,54,36,30.26,30.12,24,6,24,0.00
2013-2-3,76.1,63.6,56.8,55.0,49.8,45.0,85,57,25,30.17,30.07,21,5,21,0.00
2013-2-4,74.5,62.8,51.3,56.0,48.8,41.0,83,57,31,30.14,30.02,19,4,19,0.00
2013-2-5,77.8,67.5,56.6,62.0,57.2,53.0,90,67,37,30.08,30.00,18,2,20,0.00
2013-2-6,75.7,69.8,63.1,64.0,61.2,58.0,91,72,59,30.09,30.01,19,4,19,0.00
2013-2-7,78.4,72.2,64.6,67.0,63.2,61.0,89,71,51,30.07,29.93,23,5,23,0.00
2013-2-8,84.0,71.6,66.8,68.0,64.2,59.0,94,75,39,30.03,29.91,20,5,21,0.00
2013-2-9,77.0,70.5,64.2,66.0,62.4,59.0,95,73,53,30.17,30.02,22,7,22,0.00
2013-2-10,73.5,70.1,66.5,65.0,60.3,58.0,85,69,60,30.26,30.15,24,10,28,0.00
2013-2-11,75.8,71.3,66.3,66.0,61.9,59.0,82,70,59,30.22,30.10,26,7,26,0.00
2013-2-12,81.8,72.7,64.1,71.0,64.8,62.0,94,74,44,30.12,29.96,24,6,24,0.00
2013-2-13,82.7,74.9,68.0,72.0,67.5,65.0,97,75,51,30.01,29.88,27,8,28,0.00
2013-2-14,76.3,69.6,66.1,70.0,67.3,64.0,94,90,77,30.01,29.87,29,5,31,0.00
2013-2-15,70.6,66.2,63.3,68.0,64.5,63.0,97,91,78,30.03,29.93,17,4,17,0.00
2013-2-16,68.8,63.7,54.7,63.0,55.6,42.0,96,73,45,30.08,29.87,33,10,33,0.00
2013-2-17,58.1,51.2,44.6,43.0,32.0,24.0,63,43,24,30.31,30.08,54,14,54,0.00
2013-2-18,66.4,58.0,46.7,54.0,43.5,30.0,66,55,46,30.32,30.20,29,10,29,0.00
2013-2-19,75.3,69.4,60.2,65.0,59.5,53.0,87,69,51,30.20,30.08,28,7,28,0.00
2013-2-20,76.8,70.4,64.1,70.0,63.5,60.0,95,77,55,30.12,30.01,21,4,21,0.00
2013-2-21,77.8,71.5,64.2,71.0,64.9,63.0,95,78,57,30.09,30.00,21,5,21,0.00
2013-2-22,79.4,73.9,68.7,70.0,67.6,65.0,90,78,66,30.10,30.01,28,10,28,0.00
2013-2-23,80.8,75.1,71.3,71.0,68.6,66.0,92,78,59,30.04,29.90,28,9,28,0.00
2013-2-24,84.7,75.5,70.5,72.0,68.9,64.0,98,77,43,29.99,29.89,20,6,20,0.00
2013-2-25,80.8,74.8,69.0,74.0,69.3,67.0,93,80,59,29.92,29.81,28,7,28,0.00
2013-2-26,83.0,76.7,72.7,71.0,69.2,66.0,91,75,53,29.89,29.79,37,11,37,0.00
2013-2-27,74.4,69.0,62.2,72.0,63.3,57.0,96,80,57,29.96,29.86,19,6,19,0.00
2013-2-28,72.2,63.6,58.8,63.0,53.0,48.0,94,66,35,30.00,29.90,24,6,54,0.00
2013-3-1,64.3,61.2,57.8,55.0,49.4,45.0,76,63,51,29.99,29.89,19,7,19,0.00
2013-3-2,57.9,57.6,57.3,48.0,47.3,47.0,69,68,66,29.97,29.96,16,9,16,0.00
2013-3-3,60.4,55.5,49.9,43.0,40.3,37.0,68,53,44,30.14,29.98,32,11,33,0.00
2013-3-4,66.5,54.2,43.1,47.0,38.3,32.0,78,52,23,30.21,30.11,26,8,26,0.00
2013-3-5,72.7,63.5,52.3,56.0,52.3,45.0,85,65,47,30.18,30.07,22,5,54,0.00
2013-3-6,73.0,63.7,53.7,62.0,51.7,38.0,94,63,22,30.10,29.94,32,10,54,0.00
2013-3-7,69.8,58.9,48.1,54.0,44.8,34.0,81,57,36,30.18,30.07,27,8,27,0.00
2013-3-8,74.0,63.1,53.2,53.0,50.7,46.0,87,61,28,30.20,30.09,17,6,18,0.00
2013-3-9,72.5,64.8,56.2,56.0,52.9,49.0,84,63,49,30.19,30.10,22,6,22,0.00
2013-3-10,72.9,68.7,64.3,59.0,55.0,52.0,70,58,46,30.16,30.07,21,8,26,0.00
2013-3-11,74.2,69.9,66.7,61.0,58.5,56.0,74,64,49,30.11,29.95,26,10,27,0.00
2013-3-12,78.2,72.5,67.7,66.0,63.4,60.0,83,70,59,30.00,29.90,27,9,27,0.00
2013-3-13,70.7,64.6,57.0,65.0,54.2,46.0,91,67,32,30.12,29.98,29,10,56,0.00
2013-3-14,66.0,58.7,53.7,52.0,46.5,41.0,78,62,36,30.20,30.09,26,11,26,0.00
2013-3-15,72.9,64.2,52.0,55.0,50.0,44.0,76,56,39,30.25,30.15,19,7,24,0.00
2013-3-16,72.3,64.5,56.1,72.8,60.0,50.0,92,65,40,30.18,30.08,25,5,27,0.00
2013-3-17,73.0,66.6,60.0,71.2,69.4,68.2,86,70,53,30.15,30.03,27,6,28,0.00
2013-3-18,76.8,71.3,66.0,71.9,70.4,63.4,93,78,63,30.07,29.96,32,9,32,0.00
2013-3-19,75.3,69.6,67.6,71.3,70.3,69.7,94,87,67,30.01,29.85,27,5,27,0.00
2013-3-20,79.8,74.6,65.4,73.2,72.2,71.7,84,59,48,29.93,29.80,24,6,24,0.00
2013-3-21,75.4,66.7,61.1,73.8,71.8,70.3,92,61,31,29.95,29.82,21,6,22,0.00
2013-3-22,73.2,67.4,58.6,73.1,71.9,70.5,93,74,55,30.01,29.90,44,6,44,0.00
2013-3-23,84.0,76.3,70.4,75.0,73.1,70.0,94,78,49,29.99,29.79,26,6,26,0.00
2013-3-24,84.8,77.1,71.5,75.3,74.5,71.6,95,76,50,29.89,29.66,43,12,43,0.00
2013-3-25,76.3,72.0,63.7,76.2,75.1,74.3,95,62,27,29.99,29.74,21,7,23,0.00
2013-3-26,65.0,59.6,53.0,74.5,72.9,71.7,59,40,25,30.21,29.98,33,13,33,0.00
2013-3-27,67.3,56.7,46.9,72.8,71.0,69.5,69,51,30,30.25,30.17,23,9,23,0.00
2013-3-28,70.7,60.7,49.7,73.4,70.6,69.0,78,54,30,30.27,30.16,21,7,21,0.00
2013-3-29,72.1,64.5,55.4,72.7,70.5,69.0,70,55,40,30.29,30.20,54,6,54,0.00
2013-3-30,72.0,66.4,58.7,74.8,71.5,69.7,87,59,37,30.26,30.16,22,5,22,0.00
2013-3-31,76.2,69.9,60.1,74.0,72.0,70.5,86,68,54,30.18,30.04,28,8,30,0.00
2013-4-1,83.9,75.1,68.7,74.0,72.8,71.3,92,67,38,30.05,29.93,27,7,28,0.00
2013-4-2,82.0,73.6,66.2,79.9,75.2,72.7,95,71,46,30.07,29.99,17,5,18,0.00
2013-4-3,78.5,74.7,70.1,78.9,76.6,74.7,84,72,58,30.06,29.99,27,8,28,0.00
2013-4-4,81.0,73.9,68.1,77.9,76.2,75.2,92,80,64,30.05,29.90,31,9,31,0.00
2013-4-5,70.9,67.8,65.9,76.1,75.0,74.2,94,89,80,32.80,20.01,28,7,28,0.00
2013-4-6,75.2,68.1,58.8,75.1,74.0,72.7,92,73,53,19.73,19.47,26,10,29,0.00
2013-4-7,75.8,72.1,68.8,76.5,74.1,67.7,72,64,53,19.45,19.45,23,7,23,0.00
2013-4-8,78.3,72.1,64.2,78.9,75.4,73.0,90,67,45,19.50,19.50,22,4,22,0.00
2013-4-9,77.7,73.7,70.1,77.5,75.8,74.3,81,70,60,19.44,19.44,24,8,25,0.00
2013-4-10,79.6,75.5,71.6,79.2,76.4,74.5,82,75,62,19.40,19.40,26,10,27,0.00
2013-4-11,79.0,76.0,73.8,78.9,76.7,75.5,86,78,68,19.29,19.29,56,14,56,0.00
2013-4-12,83.0,77.7,74.7,79.6,77.7,70.8,89,81,64,19.22,19.05,33,11,33,0.00
2013-4-13,82.3,75.7,72.5,79.1,78.1,68.5,94,82,65,27.37,19.04,41,4,44,0.00
2013-4-14,82.3,77.5,72.6,81.1,79.1,74.5,95,80,63,19.33,19.33,28,8,28,0.00
2013-4-15,86.8,76.2,69.6,83.3,80.5,78.6,92,80,54,19.34,18.98,47,6,50,0.00
2013-4-16,82.4,76.7,71.3,83.9,81.1,79.5,95,80,64,19.40,19.40,26,6,26,0.00
2013-4-17,81.3,76.9,72.2,83.7,81.4,79.7,84,67,48,19.36,19.36,21,6,21,0.00
2013-4-18,81.5,77.5,73.4,83.8,81.8,80.4,81,71,62,19.35,19.35,26,8,27,0.00
2013-4-19,82.5,79.1,75.8,84.1,82.1,80.5,85,72,55,19.25,19.25,34,12,34,0.00
2013-4-20,88.5,77.1,72.2,86.2,83.5,82.2,90,78,46,19.24,19.24,29,7,31,0.00
2013-4-21,81.3,75.9,70.8,86.1,83.7,82.0,95,79,63,30.09,19.41,27,8,27,0.00
2013-4-22,84.7,74.7,70.8,85.9,83.4,81.8,91,78,52,30.04,29.93,32,7,32,0.00
2013-4-23,79.3,74.2,67.5,83.6,82.5,81.3,92,69,51,30.09,29.95,32,10,32,0.00
2013-4-24,80.3,75.5,68.9,86.4,83.2,78.3,76,59,48,30.13,30.03,30,6,30,0.00
2013-4-25,80.3,75.6,70.3,86.2,83.6,81.5,74,57,44,30.20,30.08,21,5,22,0.00
2013-4-26,79.5,75.0,68.5,85.0,83.7,81.9,78,63,51,30.22,30.11,29,6,29,0.00
2013-4-27,79.3,75.6,71.5,86.6,84.0,82.0,71,60,47,30.21,30.08,26,9,26,0.00
2013-4-28,78.8,75.2,71.5,86.0,83.6,81.8,70,58,42,30.12,29.99,28,10,28,0.00
2013-4-29,79.8,75.9,72.3,85.3,83.2,82.0,79,68,56,30.03,29.93,29,8,29,0.00
2013-4-30,81.0,74.6,69.1,83.7,82.7,81.6,93,81,59,29.99,29.92,38,3,38,0.00
2013-5-1,82.0,73.8,70.0,85.4,82.7,81.0,93,83,59,30.00,29.92,24,4,24,0.00
2013-5-2,76.2,71.4,68.9,82.5,81.3,79.8,95,90,80,29.95,29.88,29,6,29,0.00
2013-5-3,85.0,73.6,68.5,83.1,80.8,73.6,96,80,48,19.29,19.28,33,5,35,0.00
2013-5-4,83.5,75.2,68.0,82.7,81.2,79.6,95,74,49,19.27,19.23,22,5,23,0.00
2013-5-5,78.5,72.9,67.2,82.8,81.4,80.0,94,64,34,19.27,19.27,23,6,24,0.00
2013-5-6,80.0,72.6,62.6,82.6,81.3,79.7,85,61,46,19.41,19.41,16,3,16,0.00
2013-5-7,80.4,71.9,62.4,82.6,81.1,79.5,76,59,39,19.38,19.38,24,6,24,0.00
2013-5-8,85.3,73.3,62.5,83.2,81.5,79.2,90,60,33,19.47,19.47,16,3,16,0.00
2013-5-9,84.0,76.7,67.5,84.7,82.5,80.4,79,65,45,19.39,19.39,21,5,54,0.00
2013-5-10,84.0,78.9,74.1,86.2,83.8,81.7,85,71,50,19.31,19.16,26,6,27,0.00
2013-5-11,84.3,78.0,72.6,86.2,84.5,82.8,93,78,55,19.26,19.26,37,6,39,0.00
2013-5-12,86.7,76.6,71.9,86.7,84.9,83.2,94,79,49,19.37,19.37,31,5,31,0.00
2013-5-13,84.7,76.9,71.8,86.5,85.1,76.2,94,71,45,19.38,19.38,21,6,22,0.00
2013-5-14,78.0,74.8,70.8,85.7,84.3,82.7,74,55,43,30.17,19.36,36,8,36,0.00
2013-5-15,78.8,74.6,69.6,86.9,84.3,82.5,69,56,43,30.19,30.09,24,7,24,0.00
2013-5-16,79.8,75.2,68.7,86.2,84.1,82.5,75,58,46,30.11,30.04,24,6,24,0.00
2013-5-17,81.0,76.1,71.8,87.1,84.4,82.2,84,73,64,30.09,30.01,24,6,25,0.00
2013-5-18,82.3,77.4,73.0,86.6,84.5,83.0,89,75,62,30.10,30.03,29,6,29,0.00
2013-5-19,82.6,78.3,73.3,87.8,85.2,83.0,85,68,53,30.10,30.00,22,6,22,0.00
2013-5-20,78.3,74.9,67.6,85.5,84.3,77.6,91,82,75,33.47,20.01,34,5,36,0.00
2013-5-21,79.8,74.3,68.8,86.6,84.0,82.0,95,83,65,19.47,19.47,28,7,29,0.00
2013-5-22,83.3,76.8,73.5,86.3,84.4,82.8,90,77,59,19.25,19.25,29,5,29,0.00
2013-5-23,89.0,79.3,72.6,87.3,85.0,83.2,96,74,39,19.24,19.24,19,5,19,0.00
2013-5-24,89.8,82.1,75.3,90.1,86.6,78.2,90,66,35,19.18,19.17,22,5,23,0.00
2013-5-25,82.3,78.9,75.4,87.8,86.4,84.0,84,64,49,30.16,19.23,26,8,26,0.00
2013-5-26,81.7,77.1,70.8,88.3,85.7,84.2,77,59,48,30.17,30.10,28,8,28,0.00
2013-5-27,81.8,77.6,73.3,86.8,84.9,83.5,83,67,59,30.15,30.06,26,9,26,0.00
2013-5-28,81.5,76.9,73.6,84.7,83.8,74.8,85,78,65,30.11,30.04,34,12,36,0.00
2013-5-29,78.7,74.6,69.8,83.5,82.6,81.7,95,84,69,30.09,30.02,37,9,37,0.00
2013-5-30,79.8,76.0,72.8,82.5,81.7,80.8,91,79,66,30.08,30.00,39,13,39,0.00
2013-5-31,81.0,76.7,73.5,84.7,82.1,76.7,91,82,69,30.06,30.00,32,10,44,0.00
2013-6-1,82.0,76.9,74.1,83.4,82.2,79.8,94,86,70,30.03,29.95,21,4,21,0.00
2013-6-2,85.7,78.5,72.8,86.3,82.8,81.0,96,80,57,30.00,29.92,22,3,22,0.00
2013-6-3,83.8,77.2,74.0,84.8,83.4,82.2,93,83,64,30.02,29.90,29,3,54,0.00
2013-6-4,83.9,77.4,73.9,85.7,83.6,82.3,94,84,65,30.05,29.95,25,2,26,0.00
2013-6-5,81.3,79.3,77.4,84.3,83.5,82.7,86,82,74,30.01,29.89,18,6,18,0.00
2013-6-6,84.3,77.9,72.0,83.7,83.0,74.4,96,84,70,29.91,29.75,52,11,52,0.00
2013-6-7,85.5,76.1,72.8,84.1,82.8,81.8,95,86,62,29.98,29.83,21,6,22,0.00
2013-6-8,81.7,76.8,73.4,83.9,82.5,62.3,97,90,77,33.47,20.01,25,4,25,0.00
2013-6-9,83.5,81.2,78.7,85.9,84.1,81.6,82,72,62,30.11,19.21,27,10,27,0.00
2013-6-10,85.0,81.1,77.9,88.0,85.0,81.3,84,75,63,30.09,30.00,23,8,24,0.00
2013-6-11,85.5,80.8,76.8,87.3,85.8,75.3,87,78,59,30.09,30.00,23,5,23,0.00
2013-6-12,88.7,80.1,76.6,87.4,85.7,84.6,91,80,57,30.07,30.01,16,2,16,0.00
2013-6-13,86.4,79.3,74.4,86.7,85.5,84.2,96,79,54,30.04,29.93,16,3,16,0.00
2013-6-14,88.0,79.8,74.8,93.9,66.4,-3.5,94,74,49,29.97,29.87,28,4,28,0.00
2013-6-15,90.3,81.9,75.3,96.4,55.4,-3.4,91,66,36,30.05,29.91,17,3,17,0.00
2013-6-16,87.8,82.4,77.1,96.4,77.4,29.5,86,69,48,30.09,30.01,19,5,19,0.00
2013-6-17,87.4,82.8,78.2,90.4,90.4,90.4,87,70,54,30.07,30.00,22,6,24,0.00
2013-6-18,87.6,82.9,78.4,91.7,90.6,90.4,87,68,50,30.06,29.98,29,6,29,0.00
2013-6-19,87.6,81.9,77.9,91.7,80.5,43.1,86,71,48,30.04,29.97,34,5,36,0.00
2013-6-20,89.0,80.8,75.2,93.9,48.1,38.1,84,68,45,30.08,30.01,26,4,26,0.00
2013-6-21,87.0,82.0,76.8,93.9,42.4,-3.5,87,68,51,30.11,30.02,20,5,23,0.00
2013-6-22,86.4,82.4,77.8,93.9,44.5,43.1,82,65,47,30.10,30.03,22,5,22,0.00
2013-6-23,85.2,81.0,75.9,93.9,63.1,43.1,80,70,55,30.12,30.04,25,8,25,0.00
2013-6-24,85.7,82.1,78.9,93.9,51.9,48.8,74,66,54,30.16,30.07,26,9,26,0.00
2013-6-25,85.9,81.7,78.7,93.9,50.0,43.1,80,70,58,30.13,30.03,25,8,28,0.00
2013-6-26,85.7,81.7,79.1,93.9,74.8,43.1,80,70,53,30.07,30.00,26,7,54,0.00
2013-6-27,86.3,80.7,77.6,93.9,67.6,43.1,86,74,59,30.06,29.95,17,4,18,0.00
2013-6-28,89.0,80.8,74.0,93.9,73.4,-3.5,91,72,47,29.99,29.85,24,4,24,0.00
2013-6-29,89.5,79.6,74.3,93.9,69.9,-1.4,92,78,48,29.91,20.13,29,4,29,0.00
2013-6-30,87.1,79.8,73.6,96.0,86.4,-2.6,89,79,56,19.17,19.17,36,7,36,0.00
2013-7-13,87.3,78.7,76.7,87.4,85.7,85.0,84,81,64,30.02,29.95,21,4,21,0.00
2013-7-14,88.6,80.7,76.3,86.5,85.3,84.5,85,75,54,30.09,29.98,27,6,27,0.00
2013-7-15,89.0,83.2,77.2,86.6,85.3,84.4,83,70,56,30.09,30.01,22,5,23,0.00
2013-7-16,86.7,81.7,77.6,84.9,84.4,83.7,82,73,60,30.16,30.05,41,7,42,0.00
2013-7-17,84.9,82.4,79.8,84.0,83.5,83.2,80,73,65,30.14,30.04,23,5,44,0.00
2013-7-18,86.5,81.8,78.8,83.3,83.0,82.7,82,76,66,30.12,30.05,17,4,18,0.00
2013-7-19,85.7,85.5,85.4,83.9,83.8,83.7,74,74,73,30.12,30.11,10,4,10,0.00
2013-7-20,88.7,85.6,81.6,84.1,83.7,83.2,78,73,64,30.11,30.03,25,6,26,0.00
2013-7-21,91.0,84.6,81.1,87.9,81.4,-6.4,80,73,58,30.15,30.04,25,4,25,0.00
2013-7-22,93.0,86.7,80.7,87.9,86.4,85.2,82,67,49,30.14,30.06,20,5,20,0.00
2013-7-23,96.3,88.3,82.4,89.4,87.6,86.3,79,62,39,30.10,29.96,17,5,18,0.00
2013-7-24,94.5,87.7,81.9,88.9,87.9,86.9,78,60,35,30.01,29.90,21,5,23,0.00
2013-7-25,94.1,87.7,81.6,88.6,87.6,86.7,77,63,49,30.01,29.91,21,6,21,0.00
2013-7-26,93.2,86.5,82.9,88.3,87.4,86.7,77,68,48,30.02,29.92,20,6,54,0.00
2013-7-27,96.2,84.5,80.6,90.8,75.6,-6.4,81,74,48,30.00,29.92,27,2,27,0.00
2013-7-28,88.3,83.2,77.9,88.6,72.2,28.4,83,77,63,30.08,29.94,33,2,33,0.00
2013-7-29,90.8,85.7,81.6,95.0,81.3,75.0,81,70,55,30.13,30.02,24,3,24,0.00
2013-7-30,91.8,87.2,82.8,94.2,83.2,76.2,78,68,55,30.16,30.07,21,4,21,0.00
2013-7-31,90.5,87.2,84.3,96.0,85.5,77.8,75,65,48,30.11,30.02,26,6,27,0.00
2013-8-1,90.2,86.3,81.9,89.4,87.8,86.5,72,61,48,30.07,29.94,21,5,25,0.00
2013-8-2,90.8,83.8,79.7,88.2,87.4,86.6,79,68,51,30.06,29.93,19,4,22,0.00
2013-8-3,86.8,81.1,77.3,86.7,86.0,85.3,81,76,65,30.13,30.03,25,3,30,0.00
2013-8-4,95.0,83.6,77.9,92.5,85.8,2.1,83,72,43,30.12,30.01,40,3,49,0.00
2013-8-5,94.0,84.2,80.0,87.8,86.2,85.3,85,72,47,30.07,29.98,22,3,28,0.00
2013-8-6,94.8,86.0,79.8,88.1,86.7,80.0,82,68,50,30.01,29.93,16,2,20,0.00
2013-8-7,89.8,86.1,82.2,88.9,87.5,86.3,78,66,55,30.02,29.93,26,6,32,0.00
2013-8-8,90.3,86.8,84.1,89.2,87.8,86.7,71,63,51,30.05,29.96,23,9,32,0.00
2013-8-9,90.9,85.8,84.0,88.3,87.6,79.4,70,63,52,30.11,29.99,24,8,29,0.00
2013-8-10,90.5,86.9,83.6,88.9,87.7,86.6,72,64,52,30.15,30.07,20,8,26,0.00
2013-8-11,91.6,87.7,84.1,89.6,88.3,86.9,71,62,50,30.17,30.10,14,6,21,0.00
2013-8-12,91.0,86.8,82.3,89.8,88.7,87.5,74,63,49,30.14,30.05,16,5,21,0.00
2013-8-13,91.9,87.5,83.3,90.4,89.0,88.0,75,62,46,30.08,29.99,18,5,22,0.00
2013-8-14,94.8,87.3,81.6,90.8,89.4,78.7,78,62,43,30.06,29.96,18,5,23,0.00
2013-8-15,89.5,84.8,79.2,89.7,89.0,88.4,80,68,55,30.09,29.99,18,6,29,0.00
2013-8-16,91.3,86.4,81.5,90.3,89.1,88.0,74,66,52,30.09,30.01,21,5,28,0.00
2013-8-17,90.5,87.7,83.4,90.6,89.6,88.6,74,66,54,30.11,30.03,19,6,25,0.00
2013-8-18,90.0,86.9,83.2,90.9,89.8,88.8,74,65,56,30.12,30.03,28,8,35,0.00
2013-8-19,90.5,87.2,83.9,90.8,89.7,88.7,74,65,54,30.07,29.96,22,8,26,0.00
2013-8-20,91.0,86.9,83.6,90.8,89.7,88.7,73,63,49,30.06,29.97,21,6,25,0.00
2013-8-21,89.7,85.7,81.9,92.8,83.0,1.9,77,70,57,30.07,29.99,24,8,29,0.00
2013-8-22,90.4,87.1,84.4,1.9,1.9,1.9,74,65,55,30.06,29.96,21,6,25,0.00
2013-8-23,91.7,86.9,83.2,99.9,44.5,1.9,75,65,53,30.01,29.93,17,4,44,0.00
2013-8-24,91.7,86.4,81.3,99.9,86.6,74.8,76,65,53,30.09,29.97,31,4,38,0.00
2013-8-25,90.3,84.3,79.9,99.9,85.1,72.5,81,68,53,30.14,30.02,15,5,18,0.00
2013-8-26,90.7,85.0,81.9,88.5,87.4,86.9,76,69,53,30.11,30.02,18,2,21,0.00
2013-8-27,88.4,83.2,78.5,87.7,86.9,82.1,83,69,53,30.04,29.96,16,3,20,0.00
2013-8-28,88.7,83.7,79.0,87.2,86.7,86.1,79,68,53,30.04,29.94,29,4,36,0.00
2013-8-29,91.8,85.6,78.3,87.9,86.7,85.8,80,66,51,30.02,29.92,17,5,21,0.00
2013-8-30,94.7,87.2,81.2,88.7,87.2,86.1,79,62,39,30.00,29.89,19,5,44,0.00
2013-8-31,93.2,85.1,79.6,88.8,87.4,86.5,75,64,43,29.98,29.90,24,5,29,0.00
2013-9-1,95.5,85.6,80.8,88.2,87.4,86.7,79,66,45,30.00,29.92,16,2,20,0.00
2013-9-2,95.3,86.2,78.1,91.2,86.6,-1.0,80,67,43,30.06,29.93,39,2,41,0.00
2013-9-15,87.2,83.0,78.3,87.0,85.7,54.5,82,75,64,30.06,29.96,26,4,32,0.00
2013-9-16,88.3,83.5,80.3,85.7,85.1,84.7,82,76,60,30.05,29.98,32,3,40,0.00
2013-9-30,90.2,86.8,83.1,86.0,85.6,85.2,62,53,46,29.99,29.90,13,4,14,0.00
2013-10-1,93.2,85.8,81.1,86.4,85.5,84.5,70,59,50,30.03,29.94,16,4,19,0.00
2013-10-2,88.7,84.8,15.8,86.3,85.2,16.3,66,60,51,30.04,20.20,20,5,22,0.00
2013-10-3,90.0,84.8,81.7,86.3,85.6,84.5,70,61,49,30.05,29.94,17,2,20,0.00
2013-10-4,90.0,84.6,80.3,86.6,85.7,84.7,74,60,45,30.05,29.97,14,2,19,0.00
2013-10-5,90.3,84.4,77.7,86.6,85.8,84.8,79,61,48,30.03,29.92,17,3,18,0.00
2013-10-6,91.9,85.0,79.8,86.3,85.6,85.0,77,63,49,29.96,29.86,14,2,16,0.00
2013-10-7,87.2,81.8,78.3,85.7,85.1,84.7,83,70,53,29.89,29.83,15,3,19,0.00
2013-10-9,84.8,82.5,79.5,84.8,84.3,83.6,76,71,66,29.98,29.91,20,10,26,0.00
2013-10-10,87.3,81.8,75.1,84.6,83.8,83.0,82,66,48,30.00,29.93,21,6,22,0.00
2013-10-11,90.3,81.9,75.1,84.6,83.6,82.7,78,60,41,30.01,29.93,17,3,20,0.00
2013-10-12,89.6,82.9,75.7,84.7,83.8,82.8,75,57,43,30.02,29.94,14,2,19,0.00
2013-10-13,87.1,81.4,77.1,84.1,83.4,82.8,72,57,40,30.04,29.96,20,5,22,0.00
2013-10-14,88.8,81.8,75.5,83.8,83.0,82.2,75,59,42,30.00,29.89,16,3,18,0.00
2013-10-15,89.8,81.9,75.3,83.9,83.0,82.2,81,63,48,29.95,29.86,14,3,16,0.00
2013-10-16,93.5,82.7,76.0,83.9,83.1,82.3,79,62,47,29.94,29.87,14,3,18,0.00
2013-10-17,90.1,84.4,77.8,84.0,83.3,82.4,76,60,45,29.96,29.88,11,2,15,0.00
2013-10-18,90.6,84.4,78.1,83.8,83.3,82.7,78,63,51,29.98,29.89,14,2,17,0.00
2013-10-19,102.0,84.8,79.0,84.4,83.5,82.6,77,62,47,29.95,29.86,16,5,19,0.00
2013-10-20,92.9,85.2,80.2,84.5,83.8,83.1,78,66,45,29.95,29.86,13,3,16,0.00
2013-10-21,93.6,85.6,80.8,84.8,83.9,83.4,78,66,56,29.99,29.90,16,2,17,0.00
2013-10-22,86.2,84.6,82.6,84.5,84.3,84.1,73,69,66,29.87,29.85,9,4,12,0.00
2013-10-23,89.6,82.8,79.2,84.9,84.1,83.5,80,67,50,29.95,29.80,19,5,23,0.00
2013-10-24,82.3,78.2,73.9,83.6,82.9,81.7,70,60,50,30.08,29.93,20,9,24,0.00
2013-10-25,83.0,77.4,71.2,81.8,81.1,80.3,73,59,46,30.14,30.06,26,7,30,0.00
2013-10-26,86.2,77.6,70.8,80.7,80.1,79.5,72,58,42,30.14,30.04,12,4,18,0.00
2013-10-27,83.3,74.6,70.0,79.8,79.3,78.8,70,62,51,30.08,30.02,15,4,17,0.00
2013-10-28,88.2,79.1,70.6,80.3,79.4,78.5,78,59,40,30.13,30.04,16,2,20,0.00
2013-10-29,87.0,80.4,72.5,80.1,79.5,75.2,76,59,42,30.17,30.08,24,5,28,0.00
2013-10-30,87.4,82.0,77.9,80.3,79.3,78.5,62,55,46,30.18,30.07,20,7,24,0.00
2013-10-31,86.2,82.4,79.1,79.8,79.2,78.5,70,60,51,30.11,29.98,22,7,23,0.00
2013-11-1,101.7,83.5,78.3,80.4,79.5,78.5,75,64,53,30.00,29.87,21,6,25,0.00
2013-11-2,90.3,81.9,74.9,80.5,79.7,78.8,79,63,40,29.92,29.79,19,5,22,0.00
2013-11-3,81.2,76.4,71.3,79.7,78.9,77.8,70,58,45,30.02,29.88,32,12,36,0.00
2013-11-4,84.7,79.0,74.9,77.9,77.2,76.3,62,53,40,30.07,30.00,29,11,36,0.00
2013-11-5,83.5,80.7,78.9,77.1,76.4,75.8,66,61,53,30.09,30.01,27,13,36,0.00
2013-11-6,88.6,81.6,76.8,77.1,76.4,75.5,68,58,46,30.06,29.98,22,7,27,0.00
2013-11-7,87.0,79.4,74.2,77.7,76.9,76.2,83,68,53,30.01,29.91,15,5,16,0.00
2013-11-8,83.0,78.0,74.2,77.5,76.9,76.5,81,74,60,30.03,29.93,24,10,28,0.00
2013-11-9,80.8,75.6,13.6,76.9,72.7,14.5,77,69,66,30.11,20.19,22,11,26,0.00
2013-11-10,85.7,81.5,14.4,77.5,76.2,14.5,68,60,53,30.11,20.21,17,4,19,0.00
2013-11-11,79.7,76.9,74.3,77.5,76.7,76.4,75,68,59,30.07,30.04,7,1,8,0.00
2013-11-12,85.0,80.3,76.1,78.1,77.6,76.9,74,60,48,30.06,29.96,15,4,17,0.00
2013-11-13,76.5,74.0,12.8,77.3,76.1,14.5,77,63,48,30.21,20.25,34,14,39,0.00
2013-11-14,78.5,74.8,71.5,75.1,74.5,73.5,58,51,46,30.24,30.13,25,11,33,0.00
2013-11-15,81.3,78.3,75.2,74.2,73.7,73.2,63,59,55,30.14,30.02,27,9,29,0.00
2013-11-16,82.3,80.1,75.9,73.8,73.5,73.2,75,64,58,30.08,30.00,18,8,24,0.00
2013-11-17,85.7,79.8,13.9,74.5,72.7,13.9,72,63,54,30.07,10.83,18,4,21,0.00
2013-11-18,87.2,80.8,75.4,75.1,74.6,73.9,81,69,54,30.01,29.90,10,2,11,0.00
2013-11-19,86.6,79.1,75.9,76.1,75.4,74.7,81,73,54,29.93,29.84,13,2,14,0.00
2013-11-20,86.1,79.6,72.7,76.9,76.1,75.1,83,71,58,30.05,29.91,10,2,14,0.00
2013-11-21,81.7,78.6,75.9,77.2,76.6,72.9,81,76,69,30.13,30.03,20,5,25,0.00
2013-11-22,83.3,80.2,78.6,77.2,76.5,75.8,71,65,58,30.15,30.06,21,9,28,0.00
2013-11-23,84.8,79.9,75.7,77.3,76.6,69.4,72,65,54,30.07,29.96,14,4,22,0.00
2013-11-24,81.6,76.3,72.5,77.4,76.7,76.1,80,69,56,30.14,29.98,29,10,39,0.00
2013-11-25,76.9,74.8,72.7,76.2,75.5,66.8,72,64,55,30.20,30.04,24,13,33,0.00
2013-11-26,83.6,79.4,74.8,75.5,75.0,74.6,80,74,64,30.04,29.80,25,13,38,0.00
2013-11-27,79.8,74.0,61.1,75.5,75.0,74.2,89,70,49,30.11,29.76,24,11,29,0.00
2013-11-28,75.5,65.2,51.0,74.2,73.0,72.2,78,62,44,30.24,30.10,22,10,26,0.00
2013-11-29,78.0,72.5,62.9,72.6,72.0,69.8,78,59,45,30.25,30.17,25,7,30,0.00
2013-11-30,79.2,72.3,65.2,71.9,71.4,68.6,85,68,52,30.20,30.09,24,6,31,0.00
2013-12-1,77.3,71.6,67.7,71.7,71.2,70.8,85,80,66,30.10,29.93,15,3,18,0.00
2013-12-2,73.9,71.0,68.1,71.5,71.3,64.6,86,78,63,29.93,29.81,14,4,17,0.00
2013-12-3,82.9,76.7,67.6,71.8,71.4,70.7,85,62,47,29.99,29.91,12,1,54,0.00
2013-12-4,83.7,76.8,70.9,72.1,71.6,70.9,82,66,53,30.08,29.97,14,2,16,0.00
2013-12-5,86.7,78.1,71.0,73.0,72.2,71.3,82,68,57,30.15,30.07,19,4,24,0.00
2013-12-6,84.7,79.4,74.2,73.8,72.9,72.2,74,65,51,30.17,30.08,21,6,28,0.00
2013-12-7,84.1,76.1,72.3,73.9,73.3,72.7,83,74,55,30.21,30.13,16,2,21,0.00
2013-12-8,87.5,80.2,76.7,74.4,73.8,73.3,74,64,52,30.20,30.11,21,5,24,0.00
2013-12-9,85.5,80.3,75.0,75.1,74.3,73.5,72,61,43,30.18,30.09,20,6,26,0.00
2013-12-10,88.3,80.2,74.5,75.2,74.6,74.0,78,67,51,30.15,30.06,13,2,15,0.00
2013-12-11,87.3,79.4,73.4,75.9,75.2,68.4,86,67,47,30.19,30.11,11,2,14,0.00
2013-12-12,78.2,74.3,71.2,76.1,75.3,74.6,88,72,55,30.21,30.12,27,9,33,0.00
2013-12-20,85.3,80.1,78.3,72.2,71.9,71.6,68,61,51,30.18,30.09,17,6,23,0.00
2013-12-21,82.8,80.1,78.1,73.1,72.2,64.7,73,68,60,30.14,30.05,22,8,29,0.00
2013-12-22,84.0,80.7,78.7,73.8,73.0,72.2,75,69,56,30.15,30.06,24,9,32,0.00
2013-12-23,84.3,80.5,76.8,74.7,73.8,73.1,76,70,59,30.17,30.09,20,7,27,0.00
2013-12-24,83.5,75.1,69.7,74.9,74.0,73.4,84,72,58,30.16,30.08,29,6,37,0.00
2013-12-25,77.8,74.5,72.8,73.5,73.2,72.7,76,67,59,30.16,30.09,16,7,22,0.00
2013-12-26,80.3,77.1,74.4,73.4,72.9,72.5,74,69,62,30.15,30.05,15,3,18,0.00
2013-12-27,83.5,78.5,73.4,74.3,73.3,72.5,81,67,58,30.18,30.08,15,4,21,0.00
2013-12-28,80.5,78.6,76.9,74.0,73.4,73.0,81,69,65,30.17,30.01,19,8,54,0.00
2013-12-29,83.1,79.2,76.4,74.1,73.6,73.3,82,76,66,30.02,29.91,21,7,26,0.00
2013-12-30,80.6,75.0,70.8,74.5,73.9,73.5,84,77,65,30.13,29.96,14,3,17,0.00
2013-12-31,79.5,74.5,69.7,74.2,73.5,73.1,76,65,55,30.21,30.09,21,6,26,0.00
2014-1-1,81.5,78.1,75.4,74.3,73.4,72.8,79,70,61,30.18,30.02,21,7,26,0.00
2014-1-2,86.5,79.5,74.0,74.4,73.8,73.1,81,66,47,30.03,29.84,28,6,32,0.00